sensor_id;sensor_type;location;lat;lon;timestamp;temperature;humidity
72206;DHT22;60111;48.286;7.812;2023-05-19T00:00:57;14.20;59.00
72206;DHT22;60111;48.286;7.812;2023-05-19T00:03:31;14.30;59.20
72206;DHT22;60111;48.286;7.812;2023-05-19T00:06:04;14.20;59.60
72206;DHT22;60111;48.286;7.812;2023-05-19T00:08:37;14.20;59.70
72206;DHT22;60111;48.286;7.812;2023-05-19T00:11:10;14.20;60.20
72206;DHT22;60111;48.286;7.812;2023-05-19T00:13:43;14.20;60.30
72206;DHT22;60111;48.286;7.812;2023-05-19T00:16:18;14.10;60.20
72206;DHT22;60111;48.286;7.812;2023-05-19T00:18:51;14.10;60.60
72206;DHT22;60111;48.286;7.812;2023-05-19T00:21:24;14.10;60.50
72206;DHT22;60111;48.286;7.812;2023-05-19T00:23:57;14.10;60.80
72206;DHT22;60111;48.286;7.812;2023-05-19T00:26:30;14.10;60.70
72206;DHT22;60111;48.286;7.812;2023-05-19T00:29:02;14.10;61.30
72206;DHT22;60111;48.286;7.812;2023-05-19T00:31:35;14.10;61.10
72206;DHT22;60111;48.286;7.812;2023-05-19T00:34:07;14.10;61.00
72206;DHT22;60111;48.286;7.812;2023-05-19T00:36:40;14.10;61.10
72206;DHT22;60111;48.286;7.812;2023-05-19T00:39:13;14.00;60.70
72206;DHT22;60111;48.286;7.812;2023-05-19T00:41:45;14.00;61.20
72206;DHT22;60111;48.286;7.812;2023-05-19T00:44:18;14.00;60.90
72206;DHT22;60111;48.286;7.812;2023-05-19T00:46:51;13.90;61.20
72206;DHT22;60111;48.286;7.812;2023-05-19T00:49:23;13.90;61.10
72206;DHT22;60111;48.286;7.812;2023-05-19T00:51:56;13.80;61.30
72206;DHT22;60111;48.286;7.812;2023-05-19T00:54:29;13.80;60.50
72206;DHT22;60111;48.286;7.812;2023-05-19T00:57:02;13.70;59.90
72206;DHT22;60111;48.286;7.812;2023-05-19T00:59:35;13.60;60.20
72206;DHT22;60111;48.286;7.812;2023-05-19T01:02:07;13.40;59.80
72206;DHT22;60111;48.286;7.812;2023-05-19T01:04:40;13.40;59.80
72206;DHT22;60111;48.286;7.812;2023-05-19T01:07:14;13.40;59.80
72206;DHT22;60111;48.286;7.812;2023-05-19T01:09:47;13.30;60.20
72206;DHT22;60111;48.286;7.812;2023-05-19T01:12:20;13.10;60.30
72206;DHT22;60111;48.286;7.812;2023-05-19T01:14:53;13.20;60.30
72206;DHT22;60111;48.286;7.812;2023-05-19T01:17:34;13.10;60.40
72206;DHT22;60111;48.286;7.812;2023-05-19T01:20:09;13.00;60.70
72206;DHT22;60111;48.286;7.812;2023-05-19T01:26:15;12.90;60.70
72206;DHT22;60111;48.286;7.812;2023-05-19T01:29:00;12.80;60.70
72206;DHT22;60111;48.286;7.812;2023-05-19T01:31:29;12.70;60.70
72206;DHT22;60111;48.286;7.812;2023-05-19T01:34:03;12.70;60.60
72206;DHT22;60111;48.286;7.812;2023-05-19T01:36:38;12.70;60.70
72206;DHT22;60111;48.286;7.812;2023-05-19T01:39:13;12.60;60.70
72206;DHT22;60111;48.286;7.812;2023-05-19T01:41:46;12.60;60.80
72206;DHT22;60111;48.286;7.812;2023-05-19T01:44:19;12.60;60.50
72206;DHT22;60111;48.286;7.812;2023-05-19T01:46:52;12.50;60.70
72206;DHT22;60111;48.286;7.812;2023-05-19T01:49:25;12.50;60.60
72206;DHT22;60111;48.286;7.812;2023-05-19T01:51:58;12.40;60.80
72206;DHT22;60111;48.286;7.812;2023-05-19T01:54:30;12.30;60.90
72206;DHT22;60111;48.286;7.812;2023-05-19T01:57:09;12.40;61.40
72206;DHT22;60111;48.286;7.812;2023-05-19T02:02:25;12.30;61.40
72206;DHT22;60111;48.286;7.812;2023-05-19T02:04:59;12.20;61.70
72206;DHT22;60111;48.286;7.812;2023-05-19T02:07:53;12.30;61.50
72206;DHT22;60111;48.286;7.812;2023-05-19T02:10:27;12.30;61.60
72206;DHT22;60111;48.286;7.812;2023-05-19T02:13:04;12.20;61.50
72206;DHT22;60111;48.286;7.812;2023-05-19T02:15:40;12.20;61.40
72206;DHT22;60111;48.286;7.812;2023-05-19T02:18:14;12.20;61.60
72206;DHT22;60111;48.286;7.812;2023-05-19T02:20:47;12.20;61.70
72206;DHT22;60111;48.286;7.812;2023-05-19T02:23:20;12.20;61.20
72206;DHT22;60111;48.286;7.812;2023-05-19T02:25:53;12.20;61.10
72206;DHT22;60111;48.286;7.812;2023-05-19T02:28:26;12.10;61.50
72206;DHT22;60111;48.286;7.812;2023-05-19T02:30:58;12.00;61.30
72206;DHT22;60111;48.286;7.812;2023-05-19T02:33:32;12.00;61.40
72206;DHT22;60111;48.286;7.812;2023-05-19T02:36:04;11.90;61.90
72206;DHT22;60111;48.286;7.812;2023-05-19T02:38:37;11.80;62.00
72206;DHT22;60111;48.286;7.812;2023-05-19T02:41:10;11.80;62.20
72206;DHT22;60111;48.286;7.812;2023-05-19T02:43:50;11.80;62.30
72206;DHT22;60111;48.286;7.812;2023-05-19T02:46:22;11.80;62.10
72206;DHT22;60111;48.286;7.812;2023-05-19T02:48:55;11.70;62.30
72206;DHT22;60111;48.286;7.812;2023-05-19T02:51:27;11.70;61.90
72206;DHT22;60111;48.286;7.812;2023-05-19T02:54:00;11.60;62.40
72206;DHT22;60111;48.286;7.812;2023-05-19T02:56:33;11.50;62.50
72206;DHT22;60111;48.286;7.812;2023-05-19T02:59:05;11.60;62.20
72206;DHT22;60111;48.286;7.812;2023-05-19T03:01:38;11.60;62.00
72206;DHT22;60111;48.286;7.812;2023-05-19T03:04:11;11.60;62.10
72206;DHT22;60111;48.286;7.812;2023-05-19T03:06:44;11.60;62.20
72206;DHT22;60111;48.286;7.812;2023-05-19T03:09:17;11.60;62.60
72206;DHT22;60111;48.286;7.812;2023-05-19T03:11:50;11.40;62.80
72206;DHT22;60111;48.286;7.812;2023-05-19T03:14:22;11.40;63.20
72206;DHT22;60111;48.286;7.812;2023-05-19T03:16:55;11.40;63.80
72206;DHT22;60111;48.286;7.812;2023-05-19T03:19:27;11.20;64.30
72206;DHT22;60111;48.286;7.812;2023-05-19T03:22:01;11.30;64.50
72206;DHT22;60111;48.286;7.812;2023-05-19T03:24:34;11.20;64.70
72206;DHT22;60111;48.286;7.812;2023-05-19T03:27:06;11.20;64.80
72206;DHT22;60111;48.286;7.812;2023-05-19T03:29:39;11.30;64.80
72206;DHT22;60111;48.286;7.812;2023-05-19T03:32:12;11.20;64.80
72206;DHT22;60111;48.286;7.812;2023-05-19T03:34:44;11.10;65.30
72206;DHT22;60111;48.286;7.812;2023-05-19T03:37:17;11.20;65.50
72206;DHT22;60111;48.286;7.812;2023-05-19T03:39:50;11.10;65.30
72206;DHT22;60111;48.286;7.812;2023-05-19T03:42:22;11.20;64.90
72206;DHT22;60111;48.286;7.812;2023-05-19T03:44:55;11.20;64.90
72206;DHT22;60111;48.286;7.812;2023-05-19T03:47:27;11.10;65.40
72206;DHT22;60111;48.286;7.812;2023-05-19T03:50:00;11.10;65.60
72206;DHT22;60111;48.286;7.812;2023-05-19T03:52:32;11.10;65.30
72206;DHT22;60111;48.286;7.812;2023-05-19T03:55:06;11.10;65.80
72206;DHT22;60111;48.286;7.812;2023-05-19T03:57:39;11.10;65.40
72206;DHT22;60111;48.286;7.812;2023-05-19T04:00:13;11.10;65.80
72206;DHT22;60111;48.286;7.812;2023-05-19T04:02:47;11.00;65.70
72206;DHT22;60111;48.286;7.812;2023-05-19T04:05:19;11.00;65.90
72206;DHT22;60111;48.286;7.812;2023-05-19T04:07:52;11.00;66.10
72206;DHT22;60111;48.286;7.812;2023-05-19T04:10:24;11.00;65.80
72206;DHT22;60111;48.286;7.812;2023-05-19T04:12:57;11.00;66.00
72206;DHT22;60111;48.286;7.812;2023-05-19T04:15:29;11.00;66.00
72206;DHT22;60111;48.286;7.812;2023-05-19T04:18:02;11.00;65.70
72206;DHT22;60111;48.286;7.812;2023-05-19T04:20:35;11.00;65.80
72206;DHT22;60111;48.286;7.812;2023-05-19T04:23:07;11.10;65.70
72206;DHT22;60111;48.286;7.812;2023-05-19T04:25:40;11.00;66.20
72206;DHT22;60111;48.286;7.812;2023-05-19T04:28:13;10.90;66.30
72206;DHT22;60111;48.286;7.812;2023-05-19T04:30:45;11.00;65.90
72206;DHT22;60111;48.286;7.812;2023-05-19T04:33:18;11.00;65.70
72206;DHT22;60111;48.286;7.812;2023-05-19T04:35:51;11.00;65.90
72206;DHT22;60111;48.286;7.812;2023-05-19T04:38:24;11.00;65.80
72206;DHT22;60111;48.286;7.812;2023-05-19T04:40:56;11.00;66.00
72206;DHT22;60111;48.286;7.812;2023-05-19T04:46:22;11.00;65.60
72206;DHT22;60111;48.286;7.812;2023-05-19T04:48:56;11.00;65.60
72206;DHT22;60111;48.286;7.812;2023-05-19T04:51:30;11.00;65.90
72206;DHT22;60111;48.286;7.812;2023-05-19T04:54:03;10.90;66.20
72206;DHT22;60111;48.286;7.812;2023-05-19T04:56:36;11.00;65.60
72206;DHT22;60111;48.286;7.812;2023-05-19T04:59:09;11.10;65.50
72206;DHT22;60111;48.286;7.812;2023-05-19T05:01:41;11.10;65.60
72206;DHT22;60111;48.286;7.812;2023-05-19T05:04:14;11.10;65.80
72206;DHT22;60111;48.286;7.812;2023-05-19T05:06:47;11.10;65.70
72206;DHT22;60111;48.286;7.812;2023-05-19T05:09:20;11.10;65.90
72206;DHT22;60111;48.286;7.812;2023-05-19T05:11:53;11.20;65.30
72206;DHT22;60111;48.286;7.812;2023-05-19T05:14:25;11.20;65.60
72206;DHT22;60111;48.286;7.812;2023-05-19T05:16:58;11.10;65.90
72206;DHT22;60111;48.286;7.812;2023-05-19T05:19:32;11.10;66.20
72206;DHT22;60111;48.286;7.812;2023-05-19T05:22:05;11.10;65.80
72206;DHT22;60111;48.286;7.812;2023-05-19T05:24:38;11.10;65.90
72206;DHT22;60111;48.286;7.812;2023-05-19T05:27:10;11.10;66.20
72206;DHT22;60111;48.286;7.812;2023-05-19T05:29:43;11.20;66.60
72206;DHT22;60111;48.286;7.812;2023-05-19T05:32:16;11.20;65.70
72206;DHT22;60111;48.286;7.812;2023-05-19T05:34:49;11.20;65.90
72206;DHT22;60111;48.286;7.812;2023-05-19T05:37:22;11.20;65.80
72206;DHT22;60111;48.286;7.812;2023-05-19T05:39:54;11.20;65.40
72206;DHT22;60111;48.286;7.812;2023-05-19T05:42:27;11.30;65.60
72206;DHT22;60111;48.286;7.812;2023-05-19T05:44:59;11.20;65.60
72206;DHT22;60111;48.286;7.812;2023-05-19T05:47:32;11.30;65.80
72206;DHT22;60111;48.286;7.812;2023-05-19T05:50:08;11.40;65.60
72206;DHT22;60111;48.286;7.812;2023-05-19T05:52:45;11.50;65.30
72206;DHT22;60111;48.286;7.812;2023-05-19T05:55:17;11.50;65.10
72206;DHT22;60111;48.286;7.812;2023-05-19T05:57:50;11.70;64.20
72206;DHT22;60111;48.286;7.812;2023-05-19T06:00:23;11.80;64.00
72206;DHT22;60111;48.286;7.812;2023-05-19T06:02:57;12.00;63.10
72206;DHT22;60111;48.286;7.812;2023-05-19T06:05:30;12.10;64.00
72206;DHT22;60111;48.286;7.812;2023-05-19T06:08:03;12.10;62.80
72206;DHT22;60111;48.286;7.812;2023-05-19T06:10:35;12.20;62.20
72206;DHT22;60111;48.286;7.812;2023-05-19T06:13:09;12.40;61.80
72206;DHT22;60111;48.286;7.812;2023-05-19T06:15:42;12.50;62.00
72206;DHT22;60111;48.286;7.812;2023-05-19T06:18:14;12.50;62.20
72206;DHT22;60111;48.286;7.812;2023-05-19T06:20:47;12.60;61.60
72206;DHT22;60111;48.286;7.812;2023-05-19T06:23:19;12.70;61.40
72206;DHT22;60111;48.286;7.812;2023-05-19T06:25:52;12.90;60.20
72206;DHT22;60111;48.286;7.812;2023-05-19T06:28:25;13.10;59.70
72206;DHT22;60111;48.286;7.812;2023-05-19T06:30:57;13.40;59.60
72206;DHT22;60111;48.286;7.812;2023-05-19T06:33:30;13.60;58.50
72206;DHT22;60111;48.286;7.812;2023-05-19T06:36:03;13.70;58.10
72206;DHT22;60111;48.286;7.812;2023-05-19T06:38:40;13.80;57.90
72206;DHT22;60111;48.286;7.812;2023-05-19T06:41:13;13.80;58.50
72206;DHT22;60111;48.286;7.812;2023-05-19T06:43:45;13.80;58.60
72206;DHT22;60111;48.286;7.812;2023-05-19T06:46:18;13.80;58.70
72206;DHT22;60111;48.286;7.812;2023-05-19T06:48:50;13.80;58.10
72206;DHT22;60111;48.286;7.812;2023-05-19T06:51:23;13.80;58.20
72206;DHT22;60111;48.286;7.812;2023-05-19T06:53:55;13.80;58.50
72206;DHT22;60111;48.286;7.812;2023-05-19T06:56:28;13.90;58.30
72206;DHT22;60111;48.286;7.812;2023-05-19T06:59:01;14.00;58.50
72206;DHT22;60111;48.286;7.812;2023-05-19T07:01:34;14.10;57.80
72206;DHT22;60111;48.286;7.812;2023-05-19T07:04:06;14.10;58.10
72206;DHT22;60111;48.286;7.812;2023-05-19T07:06:39;14.00;57.70
72206;DHT22;60111;48.286;7.812;2023-05-19T07:09:12;14.20;57.40
72206;DHT22;60111;48.286;7.812;2023-05-19T07:11:44;14.20;57.10
72206;DHT22;60111;48.286;7.812;2023-05-19T07:14:17;14.40;57.10
72206;DHT22;60111;48.286;7.812;2023-05-19T07:16:51;14.70;56.50
72206;DHT22;60111;48.286;7.812;2023-05-19T07:19:23;15.00;56.20
72206;DHT22;60111;48.286;7.812;2023-05-19T07:21:56;15.10;55.10
72206;DHT22;60111;48.286;7.812;2023-05-19T07:24:29;15.20;55.20
72206;DHT22;60111;48.286;7.812;2023-05-19T07:27:02;15.10;54.90
72206;DHT22;60111;48.286;7.812;2023-05-19T07:29:36;15.20;54.50
72206;DHT22;60111;48.286;7.812;2023-05-19T07:32:08;15.40;55.10
72206;DHT22;60111;48.286;7.812;2023-05-19T07:34:41;15.60;54.70
72206;DHT22;60111;48.286;7.812;2023-05-19T07:37:13;15.80;53.50
72206;DHT22;60111;48.286;7.812;2023-05-19T07:39:47;15.80;54.10
72206;DHT22;60111;48.286;7.812;2023-05-19T07:42:19;16.00;53.80
72206;DHT22;60111;48.286;7.812;2023-05-19T07:44:52;16.20;52.80
72206;DHT22;60111;48.286;7.812;2023-05-19T07:47:24;16.30;52.90
72206;DHT22;60111;48.286;7.812;2023-05-19T07:49:57;16.40;52.10
72206;DHT22;60111;48.286;7.812;2023-05-19T07:52:30;16.40;52.70
72206;DHT22;60111;48.286;7.812;2023-05-19T07:55:04;16.70;51.60
72206;DHT22;60111;48.286;7.812;2023-05-19T07:57:36;16.80;52.00
72206;DHT22;60111;48.286;7.812;2023-05-19T08:00:10;17.00;51.70
72206;DHT22;60111;48.286;7.812;2023-05-19T08:02:43;17.10;51.70
72206;DHT22;60111;48.286;7.812;2023-05-19T08:05:16;17.40;52.10
72206;DHT22;60111;48.286;7.812;2023-05-19T08:07:48;17.60;50.50
72206;DHT22;60111;48.286;7.812;2023-05-19T08:10:22;17.80;50.20
72206;DHT22;60111;48.286;7.812;2023-05-19T08:12:55;17.80;50.00
72206;DHT22;60111;48.286;7.812;2023-05-19T08:15:28;18.10;49.20
72206;DHT22;60111;48.286;7.812;2023-05-19T08:18:03;18.30;49.10
72206;DHT22;60111;48.286;7.812;2023-05-19T08:20:35;18.50;50.10
72206;DHT22;60111;48.286;7.812;2023-05-19T08:23:10;18.70;49.30
72206;DHT22;60111;48.286;7.812;2023-05-19T08:25:42;18.90;49.00
72206;DHT22;60111;48.286;7.812;2023-05-19T08:28:15;19.10;46.90
72206;DHT22;60111;48.286;7.812;2023-05-19T08:30:50;19.30;47.00
72206;DHT22;60111;48.286;7.812;2023-05-19T08:33:23;19.30;46.70
72206;DHT22;60111;48.286;7.812;2023-05-19T08:35:56;19.20;47.20
72206;DHT22;60111;48.286;7.812;2023-05-19T08:38:29;19.30;47.00
72206;DHT22;60111;48.286;7.812;2023-05-19T08:41:02;19.30;47.10
72206;DHT22;60111;48.286;7.812;2023-05-19T08:43:36;19.00;48.00
72206;DHT22;60111;48.286;7.812;2023-05-19T08:46:12;18.90;48.40
72206;DHT22;60111;48.286;7.812;2023-05-19T08:48:47;18.90;48.50
72206;DHT22;60111;48.286;7.812;2023-05-19T08:51:32;18.90;48.40
72206;DHT22;60111;48.286;7.812;2023-05-19T08:54:07;19.00;47.90
72206;DHT22;60111;48.286;7.812;2023-05-19T08:56:37;18.70;48.30
72206;DHT22;60111;48.286;7.812;2023-05-19T08:59:14;18.60;48.50
72206;DHT22;60111;48.286;7.812;2023-05-19T09:01:48;18.50;49.10
72206;DHT22;60111;48.286;7.812;2023-05-19T09:04:21;18.40;50.00
72206;DHT22;60111;48.286;7.812;2023-05-19T09:06:57;18.30;49.40
72206;DHT22;60111;48.286;7.812;2023-05-19T09:09:32;18.20;50.00
72206;DHT22;60111;48.286;7.812;2023-05-19T09:12:05;18.30;51.00
72206;DHT22;60111;48.286;7.812;2023-05-19T09:14:38;18.50;49.00
72206;DHT22;60111;48.286;7.812;2023-05-19T09:17:11;18.50;49.70
72206;DHT22;60111;48.286;7.812;2023-05-19T09:19:44;18.60;49.10
72206;DHT22;60111;48.286;7.812;2023-05-19T09:22:20;18.70;49.00
72206;DHT22;60111;48.286;7.812;2023-05-19T09:24:54;18.80;49.30
72206;DHT22;60111;48.286;7.812;2023-05-19T09:27:27;19.10;48.80
72206;DHT22;60111;48.286;7.812;2023-05-19T09:30:08;19.30;48.20
72206;DHT22;60111;48.286;7.812;2023-05-19T09:33:03;19.30;47.40
72206;DHT22;60111;48.286;7.812;2023-05-19T09:35:37;19.20;47.80
72206;DHT22;60111;48.286;7.812;2023-05-19T09:38:16;19.10;48.00
72206;DHT22;60111;48.286;7.812;2023-05-19T09:40:48;19.00;47.90
72206;DHT22;60111;48.286;7.812;2023-05-19T09:43:28;18.80;48.20
72206;DHT22;60111;48.286;7.812;2023-05-19T09:48:40;18.50;48.50
72206;DHT22;60111;48.286;7.812;2023-05-19T09:51:12;18.60;49.00
72206;DHT22;60111;48.286;7.812;2023-05-19T09:53:45;18.60;49.00
72206;DHT22;60111;48.286;7.812;2023-05-19T09:56:19;18.70;48.30
72206;DHT22;60111;48.286;7.812;2023-05-19T09:58:53;18.60;50.00
72206;DHT22;60111;48.286;7.812;2023-05-19T10:01:26;18.40;49.90
72206;DHT22;60111;48.286;7.812;2023-05-19T10:04:02;18.20;49.80
72206;DHT22;60111;48.286;7.812;2023-05-19T10:06:36;18.20;49.40
72206;DHT22;60111;48.286;7.812;2023-05-19T10:09:09;18.20;49.80
72206;DHT22;60111;48.286;7.812;2023-05-19T10:11:43;18.10;49.30
72206;DHT22;60111;48.286;7.812;2023-05-19T10:14:16;18.00;49.10
72206;DHT22;60111;48.286;7.812;2023-05-19T10:16:53;18.00;49.30
72206;DHT22;60111;48.286;7.812;2023-05-19T10:19:27;18.10;49.10
72206;DHT22;60111;48.286;7.812;2023-05-19T10:21:59;18.40;48.90
72206;DHT22;60111;48.286;7.812;2023-05-19T10:24:32;18.40;49.90
72206;DHT22;60111;48.286;7.812;2023-05-19T10:27:07;18.60;49.30
72206;DHT22;60111;48.286;7.812;2023-05-19T10:29:44;18.80;48.60
72206;DHT22;60111;48.286;7.812;2023-05-19T10:32:24;19.10;48.70
72206;DHT22;60111;48.286;7.812;2023-05-19T10:37:58;19.30;46.60
72206;DHT22;60111;48.286;7.812;2023-05-19T10:40:40;19.50;47.90
72206;DHT22;60111;48.286;7.812;2023-05-19T10:43:24;19.60;46.30
72206;DHT22;60111;48.286;7.812;2023-05-19T10:45:57;19.60;47.00
72206;DHT22;60111;48.286;7.812;2023-05-19T10:48:33;19.60;46.10
72206;DHT22;60111;48.286;7.812;2023-05-19T10:51:08;19.50;46.50
72206;DHT22;60111;48.286;7.812;2023-05-19T10:53:43;19.40;46.10
72206;DHT22;60111;48.286;7.812;2023-05-19T10:56:30;19.40;47.30
72206;DHT22;60111;48.286;7.812;2023-05-19T10:59:05;19.30;47.20
72206;DHT22;60111;48.286;7.812;2023-05-19T11:01:37;19.30;47.10
72206;DHT22;60111;48.286;7.812;2023-05-19T11:04:11;19.40;46.20
72206;DHT22;60111;48.286;7.812;2023-05-19T11:06:49;19.20;44.30
72206;DHT22;60111;48.286;7.812;2023-05-19T11:09:23;19.20;44.50
72206;DHT22;60111;48.286;7.812;2023-05-19T11:12:01;19.30;44.80
72206;DHT22;60111;48.286;7.812;2023-05-19T11:14:34;19.30;45.40
72206;DHT22;60111;48.286;7.812;2023-05-19T11:17:11;19.30;44.90
72206;DHT22;60111;48.286;7.812;2023-05-19T11:19:56;19.20;44.60
72206;DHT22;60111;48.286;7.812;2023-05-19T11:22:32;19.40;43.90
72206;DHT22;60111;48.286;7.812;2023-05-19T11:28:00;19.30;45.00
72206;DHT22;60111;48.286;7.812;2023-05-19T11:30:33;19.50;43.70
72206;DHT22;60111;48.286;7.812;2023-05-19T11:33:07;19.60;43.80
72206;DHT22;60111;48.286;7.812;2023-05-19T11:35:40;19.70;44.10
72206;DHT22;60111;48.286;7.812;2023-05-19T11:38:13;19.80;43.90
72206;DHT22;60111;48.286;7.812;2023-05-19T11:40:48;20.10;43.30
72206;DHT22;60111;48.286;7.812;2023-05-19T11:43:24;20.30;43.10
72206;DHT22;60111;48.286;7.812;2023-05-19T11:45:57;20.40;42.90
72206;DHT22;60111;48.286;7.812;2023-05-19T11:48:30;20.40;43.90
72206;DHT22;60111;48.286;7.812;2023-05-19T11:51:04;20.40;43.40
72206;DHT22;60111;48.286;7.812;2023-05-19T11:53:37;20.50;42.00
72206;DHT22;60111;48.286;7.812;2023-05-19T11:56:11;20.50;42.20
72206;DHT22;60111;48.286;7.812;2023-05-19T11:58:43;20.40;43.20
72206;DHT22;60111;48.286;7.812;2023-05-19T12:01:16;20.40;42.90
72206;DHT22;60111;48.286;7.812;2023-05-19T12:03:48;20.30;42.40
72206;DHT22;60111;48.286;7.812;2023-05-19T12:06:21;20.20;42.10
72206;DHT22;60111;48.286;7.812;2023-05-19T12:08:54;20.20;42.80
72206;DHT22;60111;48.286;7.812;2023-05-19T12:11:27;20.10;43.00
72206;DHT22;60111;48.286;7.812;2023-05-19T12:14:01;20.10;43.00
72206;DHT22;60111;48.286;7.812;2023-05-19T12:16:34;20.10;43.00
72206;DHT22;60111;48.286;7.812;2023-05-19T12:19:07;20.20;42.70
72206;DHT22;60111;48.286;7.812;2023-05-19T12:21:40;20.10;43.10
72206;DHT22;60111;48.286;7.812;2023-05-19T12:24:13;20.10;43.00
72206;DHT22;60111;48.286;7.812;2023-05-19T12:26:45;20.20;42.80
72206;DHT22;60111;48.286;7.812;2023-05-19T12:29:20;20.20;43.10
72206;DHT22;60111;48.286;7.812;2023-05-19T12:31:53;20.10;42.90
72206;DHT22;60111;48.286;7.812;2023-05-19T12:34:26;20.10;43.00
72206;DHT22;60111;48.286;7.812;2023-05-19T12:36:58;20.10;43.00
72206;DHT22;60111;48.286;7.812;2023-05-19T12:39:32;20.20;43.60
72206;DHT22;60111;48.286;7.812;2023-05-19T12:42:09;20.30;43.60
72206;DHT22;60111;48.286;7.812;2023-05-19T12:44:45;20.10;42.90
72206;DHT22;60111;48.286;7.812;2023-05-19T12:47:18;20.10;42.80
72206;DHT22;60111;48.286;7.812;2023-05-19T12:52:34;20.00;43.20
72206;DHT22;60111;48.286;7.812;2023-05-19T12:55:07;20.00;42.90
72206;DHT22;60111;48.286;7.812;2023-05-19T12:57:43;20.00;42.90
72206;DHT22;60111;48.286;7.812;2023-05-19T13:00:20;20.00;42.90
72206;DHT22;60111;48.286;7.812;2023-05-19T13:03:00;20.00;43.70
72206;DHT22;60111;48.286;7.812;2023-05-19T13:05:38;20.00;42.80
72206;DHT22;60111;48.286;7.812;2023-05-19T13:08:15;20.10;43.40
72206;DHT22;60111;48.286;7.812;2023-05-19T13:10:48;20.10;43.30
72206;DHT22;60111;48.286;7.812;2023-05-19T13:13:21;20.10;43.70
72206;DHT22;60111;48.286;7.812;2023-05-19T13:15:53;20.10;43.50
72206;DHT22;60111;48.286;7.812;2023-05-19T13:18:26;20.10;44.60
72206;DHT22;60111;48.286;7.812;2023-05-19T13:21:01;20.00;43.70
72206;DHT22;60111;48.286;7.812;2023-05-19T13:23:34;20.10;43.60
72206;DHT22;60111;48.286;7.812;2023-05-19T13:26:07;20.10;43.00
72206;DHT22;60111;48.286;7.812;2023-05-19T13:28:39;20.20;43.30
72206;DHT22;60111;48.286;7.812;2023-05-19T13:31:12;20.10;44.80
72206;DHT22;60111;48.286;7.812;2023-05-19T13:33:44;20.20;43.00
72206;DHT22;60111;48.286;7.812;2023-05-19T13:36:17;20.20;42.20
72206;DHT22;60111;48.286;7.812;2023-05-19T13:38:49;20.30;42.50
72206;DHT22;60111;48.286;7.812;2023-05-19T13:41:27;20.30;42.60
72206;DHT22;60111;48.286;7.812;2023-05-19T13:44:02;20.10;43.40
72206;DHT22;60111;48.286;7.812;2023-05-19T13:46:35;20.10;43.90
72206;DHT22;60111;48.286;7.812;2023-05-19T13:49:07;20.20;43.00
72206;DHT22;60111;48.286;7.812;2023-05-19T13:51:41;20.10;43.90
72206;DHT22;60111;48.286;7.812;2023-05-19T13:54:14;20.10;43.60
72206;DHT22;60111;48.286;7.812;2023-05-19T13:56:47;20.20;43.00
72206;DHT22;60111;48.286;7.812;2023-05-19T13:59:19;20.30;43.10
72206;DHT22;60111;48.286;7.812;2023-05-19T14:01:53;20.30;43.10
72206;DHT22;60111;48.286;7.812;2023-05-19T14:04:25;20.40;42.50
72206;DHT22;60111;48.286;7.812;2023-05-19T14:06:58;20.40;42.70
72206;DHT22;60111;48.286;7.812;2023-05-19T14:09:31;20.30;43.50
72206;DHT22;60111;48.286;7.812;2023-05-19T14:12:04;20.40;44.70
72206;DHT22;60111;48.286;7.812;2023-05-19T14:14:37;20.30;43.20
72206;DHT22;60111;48.286;7.812;2023-05-19T14:17:10;20.30;42.60
72206;DHT22;60111;48.286;7.812;2023-05-19T14:19:43;20.40;42.80
72206;DHT22;60111;48.286;7.812;2023-05-19T14:22:15;20.40;43.80
72206;DHT22;60111;48.286;7.812;2023-05-19T14:24:48;20.30;42.50
72206;DHT22;60111;48.286;7.812;2023-05-19T14:27:21;20.30;42.80
72206;DHT22;60111;48.286;7.812;2023-05-19T14:29:53;20.20;43.00
72206;DHT22;60111;48.286;7.812;2023-05-19T14:32:26;20.20;42.80
72206;DHT22;60111;48.286;7.812;2023-05-19T14:34:58;20.20;43.10
72206;DHT22;60111;48.286;7.812;2023-05-19T14:37:31;20.20;43.90
72206;DHT22;60111;48.286;7.812;2023-05-19T14:40:04;20.20;43.80
72206;DHT22;60111;48.286;7.812;2023-05-19T14:42:37;20.10;44.50
72206;DHT22;60111;48.286;7.812;2023-05-19T14:45:10;20.20;43.50
72206;DHT22;60111;48.286;7.812;2023-05-19T14:47:43;20.10;43.50
72206;DHT22;60111;48.286;7.812;2023-05-19T14:50:15;20.00;43.50
72206;DHT22;60111;48.286;7.812;2023-05-19T14:52:48;19.90;44.50
72206;DHT22;60111;48.286;7.812;2023-05-19T14:55:21;19.90;44.40
72206;DHT22;60111;48.286;7.812;2023-05-19T14:57:53;19.90;44.40
72206;DHT22;60111;48.286;7.812;2023-05-19T15:00:26;19.90;44.30
72206;DHT22;60111;48.286;7.812;2023-05-19T15:02:58;19.90;45.30
72206;DHT22;60111;48.286;7.812;2023-05-19T15:05:31;19.90;44.60
72206;DHT22;60111;48.286;7.812;2023-05-19T15:08:04;19.90;44.60
72206;DHT22;60111;48.286;7.812;2023-05-19T15:10:36;19.90;44.50
72206;DHT22;60111;48.286;7.812;2023-05-19T15:13:09;19.90;44.10
72206;DHT22;60111;48.286;7.812;2023-05-19T15:15:43;19.70;45.10
72206;DHT22;60111;48.286;7.812;2023-05-19T15:18:16;19.70;44.90
72206;DHT22;60111;48.286;7.812;2023-05-19T15:20:49;19.80;44.50
72206;DHT22;60111;48.286;7.812;2023-05-19T15:23:21;19.80;44.90
72206;DHT22;60111;48.286;7.812;2023-05-19T15:25:54;19.70;44.70
72206;DHT22;60111;48.286;7.812;2023-05-19T15:28:26;19.70;44.80
72206;DHT22;60111;48.286;7.812;2023-05-19T15:30:59;19.60;45.00
72206;DHT22;60111;48.286;7.812;2023-05-19T15:33:31;19.50;44.80
72206;DHT22;60111;48.286;7.812;2023-05-19T15:36:04;19.30;45.30
72206;DHT22;60111;48.286;7.812;2023-05-19T15:38:37;19.30;46.00
72206;DHT22;60111;48.286;7.812;2023-05-19T15:41:10;19.20;45.30
72206;DHT22;60111;48.286;7.812;2023-05-19T15:43:42;19.20;46.10
72206;DHT22;60111;48.286;7.812;2023-05-19T15:46:16;19.10;47.30
72206;DHT22;60111;48.286;7.812;2023-05-19T15:48:50;19.10;45.70
72206;DHT22;60111;48.286;7.812;2023-05-19T15:51:24;19.10;46.10
72206;DHT22;60111;48.286;7.812;2023-05-19T15:53:56;19.10;46.10
72206;DHT22;60111;48.286;7.812;2023-05-19T15:56:29;19.10;45.40
72206;DHT22;60111;48.286;7.812;2023-05-19T15:59:01;19.00;45.50
72206;DHT22;60111;48.286;7.812;2023-05-19T16:01:34;19.00;45.40
72206;DHT22;60111;48.286;7.812;2023-05-19T16:04:07;18.80;45.60
72206;DHT22;60111;48.286;7.812;2023-05-19T16:06:40;18.70;46.40
72206;DHT22;60111;48.286;7.812;2023-05-19T16:09:12;18.60;46.20
72206;DHT22;60111;48.286;7.812;2023-05-19T16:11:45;18.50;46.30
72206;DHT22;60111;48.286;7.812;2023-05-19T16:14:17;18.50;46.30
72206;DHT22;60111;48.286;7.812;2023-05-19T16:16:50;18.40;46.60
72206;DHT22;60111;48.286;7.812;2023-05-19T16:19:22;18.40;47.10
72206;DHT22;60111;48.286;7.812;2023-05-19T16:21:55;18.30;47.20
72206;DHT22;60111;48.286;7.812;2023-05-19T16:24:27;18.20;48.40
72206;DHT22;60111;48.286;7.812;2023-05-19T16:27:00;18.20;47.50
72206;DHT22;60111;48.286;7.812;2023-05-19T16:29:32;18.10;47.00